Back to Top

Language: 

My Weather Underground Personal Weather Station Historical Data with Graphs...

Delerius Weather Station Historical Data
Daily Summary for February 19, 2017 Units:  Both    English   Metric
« Previous Day
Next Day »
Daily Weekly Monthly Yearly Custom
  High: Low: Average:
Temperature: 52.0 °F /  11.1 °C 46.0 °F /  7.8 °C 49.4 °F /  9.7 °C
Dew Point: 49.5 °F /  9.7 °C 42.8 °F /  6 °C 45.8 °F /  7.7 °C
Humidity: 91 % 82 % 88 %
Wind Speed: 15.0 mph /  24.1 km/h - 7.3 mph /  11.7 km/h
Wind Gust: 20.0 mph /  32.2 km/h - -
Wind:- - West
Pressure: 30.14 in /  1020.5 hPa 30.02 in /  1016.5 hPa -
Precipitation: 0.00 in /  0 mm    
Historical Graphs
 
 
Tabular Data for February 19, 2017
Time Temperature Dew Point Pressure Wind Wind Speed Wind Gust Humidity Rainfall Rate (Hourly) solar Conditions
00:00 50.0 °F /  10 °C 45.7 °F /  7.6 °C 30.07 in /  1018.2 hPa WSW 10.0 mph /  16.1 km/h 16.0 mph /  25.7 km/h 85 % 0.00 in /  0 mm 0 W/m2
00:05 49.9 °F /  9.9 °C 45.6 °F /  7.6 °C 30.07 in /  1018.2 hPa WSW 10.0 mph /  16.1 km/h 16.0 mph /  25.7 km/h 85 % 0.00 in /  0 mm 0 W/m2
00:15 49.7 °F /  9.8 °C 45.7 °F /  7.6 °C 30.07 in /  1018.2 hPa WSW 12.0 mph /  19.3 km/h 18.0 mph /  29 km/h 86 % 0.00 in /  0 mm 0 W/m2
00:20 49.7 °F /  9.8 °C 45.7 °F /  7.6 °C 30.07 in /  1018.2 hPa West 12.0 mph /  19.3 km/h 12.0 mph /  19.3 km/h 86 % 0.00 in /  0 mm 0 W/m2
00:25 49.7 °F /  9.8 °C 45.7 °F /  7.6 °C 30.07 in /  1018.2 hPa WSW 12.0 mph /  19.3 km/h 13.0 mph /  20.9 km/h 86 % 0.00 in /  0 mm 0 W/m2
00:30 49.7 °F /  9.8 °C 45.7 °F /  7.6 °C 30.07 in /  1018.2 hPa West 13.0 mph /  20.9 km/h 14.0 mph /  22.5 km/h 86 % 0.00 in /  0 mm 0 W/m2
00:35 49.7 °F /  9.8 °C 46.0 °F /  7.8 °C 30.07 in /  1018.2 hPa West 13.0 mph /  20.9 km/h 15.0 mph /  24.1 km/h 87 % 0.00 in /  0 mm 0 W/m2
00:45 49.6 °F /  9.8 °C 45.9 °F /  7.7 °C 30.05 in /  1017.5 hPa West 14.0 mph /  22.5 km/h 14.0 mph /  22.5 km/h 87 % 0.00 in /  0 mm 0 W/m2
00:50 49.6 °F /  9.8 °C 45.9 °F /  7.7 °C 30.05 in /  1017.5 hPa West 14.0 mph /  22.5 km/h 14.0 mph /  22.5 km/h 87 % 0.00 in /  0 mm 0 W/m2
00:55 49.6 °F /  9.8 °C 45.9 °F /  7.7 °C 30.05 in /  1017.5 hPa WSW 13.0 mph /  20.9 km/h 14.0 mph /  22.5 km/h 87 % 0.00 in /  0 mm 0 W/m2
01:00 49.5 °F /  9.7 °C 45.8 °F /  7.7 °C 30.05 in /  1017.5 hPa West 13.0 mph /  20.9 km/h 16.0 mph /  25.7 km/h 87 % 0.00 in /  0 mm 0 W/m2
01:05 49.6 °F /  9.8 °C 45.6 °F /  7.6 °C 30.05 in /  1017.5 hPa WSW 14.0 mph /  22.5 km/h 20.0 mph /  32.2 km/h 86 % 0.00 in /  0 mm 0 W/m2
01:10 49.6 °F /  9.8 °C 45.6 °F /  7.6 °C 30.05 in /  1017.5 hPa West 14.0 mph /  22.5 km/h 20.0 mph /  32.2 km/h 86 % 0.00 in /  0 mm 0 W/m2
01:15 49.6 °F /  9.8 °C 45.3 °F /  7.4 °C 30.05 in /  1017.5 hPa WSW 13.0 mph /  20.9 km/h 20.0 mph /  32.2 km/h 85 % 0.00 in /  0 mm 0 W/m2
01:25 49.5 °F /  9.7 °C 45.2 °F /  7.3 °C 30.07 in /  1018.2 hPa West 12.0 mph /  19.3 km/h 20.0 mph /  32.2 km/h 85 % 0.00 in /  0 mm 0 W/m2
01:35 49.3 °F /  9.6 °C 45.0 °F /  7.2 °C 30.06 in /  1017.8 hPa WNW 9.0 mph /  14.5 km/h 18.0 mph /  29 km/h 85 % 0.00 in /  0 mm 0 W/m2
01:40 49.3 °F /  9.6 °C 45.0 °F /  7.2 °C 30.06 in /  1017.8 hPa WNW 11.0 mph /  17.7 km/h 11.0 mph /  17.7 km/h 85 % 0.00 in /  0 mm 0 W/m2
01:45 49.2 °F /  9.6 °C 44.9 °F /  7.2 °C 30.06 in /  1017.8 hPa WNW 11.0 mph /  17.7 km/h 12.0 mph /  19.3 km/h 85 % 0.00 in /  0 mm 0 W/m2
01:50 49.2 °F /  9.6 °C 44.9 °F /  7.2 °C 30.06 in /  1017.8 hPa West 11.0 mph /  17.7 km/h 20.0 mph /  32.2 km/h 85 % 0.00 in /  0 mm 0 W/m2
01:55 49.1 °F /  9.5 °C 45.1 °F /  7.3 °C 30.05 in /  1017.5 hPa West 12.0 mph /  19.3 km/h 20.0 mph /  32.2 km/h 86 % 0.00 in /  0 mm 0 W/m2
02:00 49.1 °F /  9.5 °C 45.1 °F /  7.3 °C 30.05 in /  1017.5 hPa West 13.0 mph /  20.9 km/h 13.0 mph /  20.9 km/h 86 % 0.00 in /  0 mm 0 W/m2
02:05 49.1 °F /  9.5 °C 45.1 °F /  7.3 °C 30.05 in /  1017.5 hPa WNW 13.0 mph /  20.9 km/h 14.0 mph /  22.5 km/h 86 % 0.00 in /  0 mm 0 W/m2
02:15 49.1 °F /  9.5 °C 45.1 °F /  7.3 °C 30.06 in /  1017.8 hPa WSW 12.0 mph /  19.3 km/h 20.0 mph /  32.2 km/h 86 % 0.00 in /  0 mm 0 W/m2
02:20 49.1 °F /  9.5 °C 45.1 °F /  7.3 °C 30.06 in /  1017.8 hPa West 11.0 mph /  17.7 km/h 20.0 mph /  32.2 km/h 86 % 0.00 in /  0 mm 0 W/m2
02:25 49.1 °F /  9.5 °C 45.1 °F /  7.3 °C 30.06 in /  1017.8 hPa WNW 10.0 mph /  16.1 km/h 20.0 mph /  32.2 km/h 86 % 0.00 in /  0 mm 0 W/m2
02:30 49.0 °F /  9.4 °C 44.7 °F /  7.1 °C 30.06 in /  1017.8 hPa NW 9.0 mph /  14.5 km/h 9.0 mph /  14.5 km/h 85 % 0.00 in /  0 mm 0 W/m2
02:35 49.0 °F /  9.4 °C 44.4 °F /  6.9 °C 30.06 in /  1017.8 hPa West 12.0 mph /  19.3 km/h 15.0 mph /  24.1 km/h 84 % 0.00 in /  0 mm 0 W/m2
02:40 49.0 °F /  9.4 °C 44.1 °F /  6.7 °C 30.06 in /  1017.8 hPa NW 15.0 mph /  24.1 km/h 15.0 mph /  24.1 km/h 83 % 0.00 in /  0 mm 0 W/m2
02:45 48.9 °F /  9.4 °C 44.0 °F /  6.7 °C 30.06 in /  1017.8 hPa West 13.0 mph /  20.9 km/h 20.0 mph /  32.2 km/h 83 % 0.00 in /  0 mm 0 W/m2
02:50 48.8 °F /  9.3 °C 43.5 °F /  6.4 °C 30.06 in /  1017.8 hPa West 13.0 mph /  20.9 km/h 13.0 mph /  20.9 km/h 82 % 0.00 in /  0 mm 0 W/m2
03:00 48.4 °F /  9.1 °C 43.5 °F /  6.4 °C 30.06 in /  1017.8 hPa West 12.0 mph /  19.3 km/h 12.0 mph /  19.3 km/h 83 % 0.00 in /  0 mm 0 W/m2
03:05 48.2 °F /  9 °C 43.3 °F /  6.3 °C 30.06 in /  1017.8 hPa West 12.0 mph /  19.3 km/h 20.0 mph /  32.2 km/h 83 % 0.00 in /  0 mm 0 W/m2
03:10 48.0 °F /  8.9 °C 43.1 °F /  6.2 °C 30.06 in /  1017.8 hPa WNW 11.0 mph /  17.7 km/h 11.0 mph /  17.7 km/h 83 % 0.00 in /  0 mm 0 W/m2
03:15 47.9 °F /  8.8 °C 43.0 °F /  6.1 °C 30.06 in /  1017.8 hPa West 11.0 mph /  17.7 km/h 13.0 mph /  20.9 km/h 83 % 0.00 in /  0 mm 0 W/m2
03:20 47.8 °F /  8.8 °C 42.9 °F /  6.1 °C 30.06 in /  1017.8 hPa WNW 11.0 mph /  17.7 km/h 20.0 mph /  32.2 km/h 83 % 0.00 in /  0 mm 0 W/m2
03:25 47.7 °F /  8.7 °C 42.8 °F /  6 °C 30.06 in /  1017.8 hPa NW 10.0 mph /  16.1 km/h 20.0 mph /  32.2 km/h 83 % 0.00 in /  0 mm 0 W/m2
03:35 47.6 °F /  8.7 °C 43.0 °F /  6.1 °C 30.07 in /  1018.2 hPa WNW 10.0 mph /  16.1 km/h 20.0 mph /  32.2 km/h 84 % 0.00 in /  0 mm 0 W/m2
03:45 47.7 °F /  8.7 °C 43.1 °F /  6.2 °C 30.07 in /  1018.2 hPa WNW 10.0 mph /  16.1 km/h 20.0 mph /  32.2 km/h 84 % 0.00 in /  0 mm 0 W/m2
03:50 47.7 °F /  8.7 °C 43.1 °F /  6.2 °C 30.07 in /  1018.2 hPa WNW 8.0 mph /  12.9 km/h 8.0 mph /  12.9 km/h 84 % 0.00 in /  0 mm 0 W/m2
03:55 47.7 °F /  8.7 °C 43.1 °F /  6.2 °C 30.07 in /  1018.2 hPa WNW 7.0 mph /  11.3 km/h 20.0 mph /  32.2 km/h 84 % 0.00 in /  0 mm 0 W/m2
04:00 47.6 °F /  8.7 °C 43.0 °F /  6.1 °C 30.07 in /  1018.2 hPa WNW 8.0 mph /  12.9 km/h 8.0 mph /  12.9 km/h 84 % 0.00 in /  0 mm 0 W/m2
04:05 47.6 °F /  8.7 °C 43.0 °F /  6.1 °C 30.07 in /  1018.2 hPa NW 8.0 mph /  12.9 km/h 20.0 mph /  32.2 km/h 84 % 0.00 in /  0 mm 0 W/m2
04:10 47.5 °F /  8.6 °C 42.9 °F /  6.1 °C 30.07 in /  1018.2 hPa West 8.0 mph /  12.9 km/h 8.0 mph /  12.9 km/h 84 % 0.00 in /  0 mm 0 W/m2
04:15 47.4 °F /  8.6 °C 42.8 °F /  6 °C 30.07 in /  1018.2 hPa WNW 7.0 mph /  11.3 km/h 20.0 mph /  32.2 km/h 84 % 0.00 in /  0 mm 0 W/m2
04:20 47.4 °F /  8.6 °C 42.8 °F /  6 °C 30.07 in /  1018.2 hPa WNW 7.0 mph /  11.3 km/h 20.0 mph /  32.2 km/h 84 % 0.00 in /  0 mm 0 W/m2
04:30 47.3 °F /  8.5 °C 43.0 °F /  6.1 °C 30.07 in /  1018.2 hPa WNW 6.0 mph /  9.7 km/h 20.0 mph /  32.2 km/h 85 % 0.00 in /  0 mm 0 W/m2
04:35 47.3 °F /  8.5 °C 43.0 °F /  6.1 °C 30.07 in /  1018.2 hPa WNW 7.0 mph /  11.3 km/h 20.0 mph /  32.2 km/h 85 % 0.00 in /  0 mm 0 W/m2
04:40 47.3 °F /  8.5 °C 43.0 °F /  6.1 °C 30.07 in /  1018.2 hPa NW 7.0 mph /  11.3 km/h 7.0 mph /  11.3 km/h 85 % 0.00 in /  0 mm 0 W/m2
04:45 47.3 °F /  8.5 °C 43.0 °F /  6.1 °C 30.07 in /  1018.2 hPa WNW 7.0 mph /  11.3 km/h 12.0 mph /  19.3 km/h 85 % 0.00 in /  0 mm 0 W/m2
04:50 47.3 °F /  8.5 °C 43.0 °F /  6.1 °C 30.08 in /  1018.5 hPa WNW 6.0 mph /  9.7 km/h 6.0 mph /  9.7 km/h 85 % 0.00 in /  0 mm 0 W/m2
04:55 47.3 °F /  8.5 °C 43.0 °F /  6.1 °C 30.08 in /  1018.5 hPa NW 4.0 mph /  6.4 km/h 20.0 mph /  32.2 km/h 85 % 0.00 in /  0 mm 0 W/m2
05:00 47.3 °F /  8.5 °C 43.0 °F /  6.1 °C 30.08 in /  1018.5 hPa NW 3.0 mph /  4.8 km/h 3.0 mph /  4.8 km/h 85 % 0.00 in /  0 mm 0 W/m2
05:10 47.3 °F /  8.5 °C 43.0 °F /  6.1 °C 30.08 in /  1018.5 hPa NW 2.0 mph /  3.2 km/h 20.0 mph /  32.2 km/h 85 % 0.00 in /  0 mm 0 W/m2
05:15 47.3 °F /  8.5 °C 43.0 °F /  6.1 °C 30.08 in /  1018.5 hPa NW 2.0 mph /  3.2 km/h 20.0 mph /  32.2 km/h 85 % 0.00 in /  0 mm 0 W/m2
05:25 47.3 °F /  8.5 °C 43.3 °F /  6.3 °C 30.08 in /  1018.5 hPa WNW 5.0 mph /  8 km/h 20.0 mph /  32.2 km/h 86 % 0.00 in /  0 mm 0 W/m2
05:30 47.2 °F /  8.4 °C 43.2 °F /  6.2 °C 30.08 in /  1018.5 hPa NW 5.0 mph /  8 km/h 20.0 mph /  32.2 km/h 86 % 0.00 in /  0 mm 0 W/m2
05:35 47.2 °F /  8.4 °C 43.2 °F /  6.2 °C 30.09 in /  1018.8 hPa North 6.0 mph /  9.7 km/h 20.0 mph /  32.2 km/h 86 % 0.00 in /  0 mm 0 W/m2
05:40 47.2 °F /  8.4 °C 43.2 °F /  6.2 °C 30.08 in /  1018.5 hPa NW 7.0 mph /  11.3 km/h 7.0 mph /  11.3 km/h 86 % 0.00 in /  0 mm 0 W/m2
05:45 47.2 °F /  8.4 °C 43.2 °F /  6.2 °C 30.09 in /  1018.8 hPa WNW 7.0 mph /  11.3 km/h 9.0 mph /  14.5 km/h 86 % 0.00 in /  0 mm 0 W/m2
05:55 47.2 °F /  8.4 °C 43.2 °F /  6.2 °C 30.09 in /  1018.8 hPa NW 6.0 mph /  9.7 km/h 20.0 mph /  32.2 km/h 86 % 0.00 in /  0 mm 0 W/m2
06:00 47.1 °F /  8.4 °C 43.1 °F /  6.2 °C 30.08 in /  1018.5 hPa West 6.0 mph /  9.7 km/h 20.0 mph /  32.2 km/h 86 % 0.00 in /  0 mm 0 W/m2
06:05 47.1 °F /  8.4 °C 43.1 °F /  6.2 °C 30.08 in /  1018.5 hPa WNW 7.0 mph /  11.3 km/h 20.0 mph /  32.2 km/h 86 % 0.00 in /  0 mm 0 W/m2
06:10 47.1 °F /  8.4 °C 43.1 °F /  6.2 °C 30.08 in /  1018.5 hPa WNW 9.0 mph /  14.5 km/h 20.0 mph /  32.2 km/h 86 % 0.00 in /  0 mm 0 W/m2
06:15 47.1 °F /  8.4 °C 43.1 °F /  6.2 °C 30.09 in /  1018.8 hPa WNW 8.0 mph /  12.9 km/h 20.0 mph /  32.2 km/h 86 % 0.00 in /  0 mm 0 W/m2
06:20 47.1 °F /  8.4 °C 43.1 °F /  6.2 °C 30.09 in /  1018.8 hPa WNW 5.0 mph /  8 km/h 20.0 mph /  32.2 km/h 86 % 0.00 in /  0 mm 0 W/m2
06:25 47.1 °F /  8.4 °C 43.1 °F /  6.2 °C 30.09 in /  1018.8 hPa WNW 5.0 mph /  8 km/h 20.0 mph /  32.2 km/h 86 % 0.00 in /  0 mm 0 W/m2
06:30 47.0 °F /  8.3 °C 43.3 °F /  6.3 °C 30.09 in /  1018.8 hPa WNW 6.0 mph /  9.7 km/h 20.0 mph /  32.2 km/h 87 % 0.00 in /  0 mm 0 W/m2
06:40 46.8 °F /  8.2 °C 43.4 °F /  6.3 °C 30.09 in /  1018.8 hPa West 6.0 mph /  9.7 km/h 20.0 mph /  32.2 km/h 88 % 0.00 in /  0 mm 0 W/m2
06:45 46.6 °F /  8.1 °C 43.5 °F /  6.4 °C 30.09 in /  1018.8 hPa West 6.0 mph /  9.7 km/h 20.0 mph /  32.2 km/h 89 % 0.00 in /  0 mm 0 W/m2
06:50 46.5 °F /  8.1 °C 43.4 °F /  6.3 °C 30.09 in /  1018.8 hPa WNW 7.0 mph /  11.3 km/h 20.0 mph /  32.2 km/h 89 % 0.00 in /  0 mm 0 W/m2
06:55 46.4 °F /  8 °C 43.6 °F /  6.4 °C 30.09 in /  1018.8 hPa WNW 8.0 mph /  12.9 km/h 20.0 mph /  32.2 km/h 90 % 0.00 in /  0 mm 0 W/m2
07:00 46.2 °F /  7.9 °C 43.4 °F /  6.3 °C 30.09 in /  1018.8 hPa WNW 8.0 mph /  12.9 km/h 8.0 mph /  12.9 km/h 90 % 0.00 in /  0 mm 0 W/m2
07:05 46.1 °F /  7.8 °C 43.6 °F /  6.4 °C 30.10 in /  1019.2 hPa NW 6.0 mph /  9.7 km/h 20.0 mph /  32.2 km/h 91 % 0.00 in /  0 mm 0 W/m2
07:10 46.1 °F /  7.8 °C 43.6 °F /  6.4 °C 30.10 in /  1019.2 hPa WNW 4.0 mph /  6.4 km/h 20.0 mph /  32.2 km/h 91 % 0.00 in /  0 mm 5 W/m2
07:15 46.0 °F /  7.8 °C 43.5 °F /  6.4 °C 30.10 in /  1019.2 hPa WNW 4.0 mph /  6.4 km/h 20.0 mph /  32.2 km/h 91 % 0.00 in /  0 mm 7 W/m2
07:25 46.0 °F /  7.8 °C 43.5 °F /  6.4 °C 30.10 in /  1019.2 hPa WNW 6.0 mph /  9.7 km/h 7.0 mph /  11.3 km/h 91 % 0.00 in /  0 mm 9 W/m2
07:30 46.0 °F /  7.8 °C 43.5 °F /  6.4 °C 30.10 in /  1019.2 hPa West 7.0 mph /  11.3 km/h 20.0 mph /  32.2 km/h 91 % 0.00 in /  0 mm 12 W/m2
07:35 46.1 °F /  7.8 °C 43.6 °F /  6.4 °C 30.10 in /  1019.2 hPa West 8.0 mph /  12.9 km/h 20.0 mph /  32.2 km/h 91 % 0.00 in /  0 mm 18 W/m2
07:40 46.1 °F /  7.8 °C 43.6 °F /  6.4 °C 30.10 in /  1019.2 hPa WNW 6.0 mph /  9.7 km/h 6.0 mph /  9.7 km/h 91 % 0.00 in /  0 mm 21 W/m2
07:45 46.1 °F /  7.8 °C 43.6 °F /  6.4 °C 30.10 in /  1019.2 hPa WNW 5.0 mph /  8 km/h 8.0 mph /  12.9 km/h 91 % 0.00 in /  0 mm 25 W/m2
07:50 46.2 °F /  7.9 °C 43.7 °F /  6.5 °C 30.10 in /  1019.2 hPa West 5.0 mph /  8 km/h 20.0 mph /  32.2 km/h 91 % 0.00 in /  0 mm 25 W/m2
07:55 46.3 °F /  7.9 °C 43.5 °F /  6.4 °C 30.10 in /  1019.2 hPa NW 7.0 mph /  11.3 km/h 20.0 mph /  32.2 km/h 90 % 0.00 in /  0 mm 32 W/m2
08:05 46.4 °F /  8 °C 43.6 °F /  6.4 °C 30.11 in /  1019.5 hPa WNW 8.0 mph /  12.9 km/h 9.0 mph /  14.5 km/h 90 % 0.00 in /  0 mm 37 W/m2
08:10 46.5 °F /  8.1 °C 43.7 °F /  6.5 °C 30.11 in /  1019.5 hPa West 6.0 mph /  9.7 km/h 20.0 mph /  32.2 km/h 90 % 0.00 in /  0 mm 42 W/m2
08:15 46.5 °F /  8.1 °C 43.7 °F /  6.5 °C 30.12 in /  1019.9 hPa WNW 6.0 mph /  9.7 km/h 20.0 mph /  32.2 km/h 90 % 0.00 in /  0 mm 53 W/m2
08:20 46.6 °F /  8.1 °C 43.8 °F /  6.6 °C 30.12 in /  1019.9 hPa West 6.0 mph /  9.7 km/h 20.0 mph /  32.2 km/h 90 % 0.00 in /  0 mm 60 W/m2
08:25 46.8 °F /  8.2 °C 44.0 °F /  6.7 °C 30.12 in /  1019.9 hPa West 6.0 mph /  9.7 km/h 20.0 mph /  32.2 km/h 90 % 0.00 in /  0 mm 83 W/m2
08:30 46.9 °F /  8.3 °C 44.1 °F /  6.7 °C 30.12 in /  1019.9 hPa WNW 6.0 mph /  9.7 km/h 20.0 mph /  32.2 km/h 90 % 0.00 in /  0 mm 81 W/m2
08:35 47.1 °F /  8.4 °C 44.3 °F /  6.8 °C 30.12 in /  1019.9 hPa WNW 8.0 mph /  12.9 km/h 20.0 mph /  32.2 km/h 90 % 0.00 in /  0 mm 79 W/m2
08:45 47.3 °F /  8.5 °C 44.5 °F /  6.9 °C 30.12 in /  1019.9 hPa WNW 9.0 mph /  14.5 km/h 20.0 mph /  32.2 km/h 90 % 0.00 in /  0 mm 95 W/m2
08:50 47.4 °F /  8.6 °C 44.3 °F /  6.8 °C 30.12 in /  1019.9 hPa West 9.0 mph /  14.5 km/h 20.0 mph /  32.2 km/h 89 % 0.00 in /  0 mm 91 W/m2
08:55 47.5 °F /  8.6 °C 44.4 °F /  6.9 °C 30.12 in /  1019.9 hPa West 9.0 mph /  14.5 km/h 20.0 mph /  32.2 km/h 89 % 0.00 in /  0 mm 88 W/m2
09:00 47.6 °F /  8.7 °C 44.5 °F /  6.9 °C 30.12 in /  1019.9 hPa WNW 9.0 mph /  14.5 km/h 20.0 mph /  32.2 km/h 89 % 0.00 in /  0 mm 93 W/m2
09:05 47.7 °F /  8.7 °C 44.6 °F /  7 °C 30.12 in /  1019.9 hPa WNW 10.0 mph /  16.1 km/h 20.0 mph /  32.2 km/h 89 % 0.00 in /  0 mm 91 W/m2
09:10 47.7 °F /  8.7 °C 44.6 °F /  7 °C 30.12 in /  1019.9 hPa WNW 9.0 mph /  14.5 km/h 9.0 mph /  14.5 km/h 89 % 0.00 in /  0 mm 88 W/m2
09:15 47.8 °F /  8.8 °C 44.7 °F /  7.1 °C 30.12 in /  1019.9 hPa WNW 9.0 mph /  14.5 km/h 11.0 mph /  17.7 km/h 89 % 0.00 in /  0 mm 77 W/m2
09:25 47.9 °F /  8.8 °C 44.5 °F /  6.9 °C 30.13 in /  1020.2 hPa West 7.0 mph /  11.3 km/h 10.0 mph /  16.1 km/h 88 % 0.00 in /  0 mm 69 W/m2
09:35 48.0 °F /  8.9 °C 44.6 °F /  7 °C 30.13 in /  1020.2 hPa West 8.0 mph /  12.9 km/h 20.0 mph /  32.2 km/h 88 % 0.00 in /  0 mm 100 W/m2
09:40 48.1 °F /  8.9 °C 44.7 °F /  7.1 °C 30.13 in /  1020.2 hPa WNW 7.0 mph /  11.3 km/h 7.0 mph /  11.3 km/h 88 % 0.00 in /  0 mm 123 W/m2
09:50 48.7 °F /  9.3 °C 45.0 °F /  7.2 °C 30.13 in /  1020.2 hPa West 3.0 mph /  4.8 km/h 20.0 mph /  32.2 km/h 87 % 0.00 in /  0 mm 185 W/m2
10:00 49.7 °F /  9.8 °C 45.7 °F /  7.6 °C 30.13 in /  1020.2 hPa West 6.0 mph /  9.7 km/h 20.0 mph /  32.2 km/h 86 % 0.00 in /  0 mm 246 W/m2
10:05 50.0 °F /  10 °C 45.4 °F /  7.4 °C 30.13 in /  1020.2 hPa West 8.0 mph /  12.9 km/h 20.0 mph /  32.2 km/h 84 % 0.00 in /  0 mm 218 W/m2
10:15 50.3 °F /  10.2 °C 45.3 °F /  7.4 °C 30.13 in /  1020.2 hPa NW 8.0 mph /  12.9 km/h 20.0 mph /  32.2 km/h 83 % 0.00 in /  0 mm 120 W/m2
10:20 50.1 °F /  10.1 °C 45.1 °F /  7.3 °C 30.13 in /  1020.2 hPa West 8.0 mph /  12.9 km/h 20.0 mph /  32.2 km/h 83 % 0.00 in /  0 mm 104 W/m2
10:25 49.9 °F /  9.9 °C 45.3 °F /  7.4 °C 30.13 in /  1020.2 hPa West 8.0 mph /  12.9 km/h 20.0 mph /  32.2 km/h 84 % 0.00 in /  0 mm 104 W/m2
10:35 49.8 °F /  9.9 °C 45.2 °F /  7.3 °C 30.13 in /  1020.2 hPa WNW 5.0 mph /  8 km/h 20.0 mph /  32.2 km/h 84 % 0.00 in /  0 mm 123 W/m2
10:40 49.9 °F /  9.9 °C 45.6 °F /  7.6 °C 30.13 in /  1020.2 hPa WNW 7.0 mph /  11.3 km/h 7.0 mph /  11.3 km/h 85 % 0.00 in /  0 mm 148 W/m2
10:45 50.0 °F /  10 °C 45.4 °F /  7.4 °C 30.13 in /  1020.2 hPa West 7.0 mph /  11.3 km/h 20.0 mph /  32.2 km/h 84 % 0.00 in /  0 mm 153 W/m2
10:50 50.1 °F /  10.1 °C 45.5 °F /  7.5 °C 30.13 in /  1020.2 hPa West 8.0 mph /  12.9 km/h 20.0 mph /  32.2 km/h 84 % 0.00 in /  0 mm 127 W/m2
10:55 50.2 °F /  10.1 °C 45.6 °F /  7.6 °C 30.13 in /  1020.2 hPa West 8.0 mph /  12.9 km/h 20.0 mph /  32.2 km/h 84 % 0.00 in /  0 mm 95 W/m2
11:05 50.0 °F /  10 °C 45.4 °F /  7.4 °C 30.13 in /  1020.2 hPa WNW 9.0 mph /  14.5 km/h 10.0 mph /  16.1 km/h 84 % 0.00 in /  0 mm 153 W/m2
11:10 50.0 °F /  10 °C 45.4 °F /  7.4 °C 30.13 in /  1020.2 hPa WNW 10.0 mph /  16.1 km/h 20.0 mph /  32.2 km/h 84 % 0.00 in /  0 mm 199 W/m2
11:15 50.2 °F /  10.1 °C 45.6 °F /  7.6 °C 30.13 in /  1020.2 hPa WNW 10.0 mph /  16.1 km/h 20.0 mph /  32.2 km/h 84 % 0.00 in /  0 mm 339 W/m2
11:20 50.5 °F /  10.3 °C 45.8 °F /  7.7 °C 30.14 in /  1020.5 hPa WNW 10.0 mph /  16.1 km/h 10.0 mph /  16.1 km/h 84 % 0.00 in /  0 mm 153 W/m2
11:25 50.5 °F /  10.3 °C 45.5 °F /  7.5 °C 30.14 in /  1020.5 hPa WNW 9.0 mph /  14.5 km/h 14.0 mph /  22.5 km/h 83 % 0.00 in /  0 mm 125 W/m2
11:30 50.4 °F /  10.2 °C 45.4 °F /  7.4 °C 30.13 in /  1020.2 hPa West 10.0 mph /  16.1 km/h 10.0 mph /  16.1 km/h 83 % 0.00 in /  0 mm 127 W/m2
11:35 50.5 °F /  10.3 °C 45.8 °F /  7.7 °C 30.13 in /  1020.2 hPa WNW 8.0 mph /  12.9 km/h 12.0 mph /  19.3 km/h 84 % 0.00 in /  0 mm 123 W/m2
11:40 50.4 °F /  10.2 °C 45.7 °F /  7.6 °C 30.13 in /  1020.2 hPa WNW 8.0 mph /  12.9 km/h 20.0 mph /  32.2 km/h 84 % 0.00 in /  0 mm 90 W/m2
11:50 50.3 °F /  10.2 °C 45.6 °F /  7.6 °C 30.13 in /  1020.2 hPa West 9.0 mph /  14.5 km/h 9.0 mph /  14.5 km/h 84 % 0.00 in /  0 mm 107 W/m2
11:55 50.3 °F /  10.2 °C 45.6 °F /  7.6 °C 30.13 in /  1020.2 hPa WSW 8.0 mph /  12.9 km/h 20.0 mph /  32.2 km/h 84 % 0.00 in /  0 mm 90 W/m2
12:00 50.2 °F /  10.1 °C 45.6 °F /  7.6 °C 30.12 in /  1019.9 hPa West 7.0 mph /  11.3 km/h 20.0 mph /  32.2 km/h 84 % 0.00 in /  0 mm 76 W/m2
12:05 50.0 °F /  10 °C 45.7 °F /  7.6 °C 30.12 in /  1019.9 hPa WSW 8.0 mph /  12.9 km/h 20.0 mph /  32.2 km/h 85 % 0.00 in /  0 mm 132 W/m2
12:10 49.9 °F /  9.9 °C 45.6 °F /  7.6 °C 30.12 in /  1019.9 hPa West 8.0 mph /  12.9 km/h 20.0 mph /  32.2 km/h 85 % 0.00 in /  0 mm 135 W/m2
12:15 50.0 °F /  10 °C 45.7 °F /  7.6 °C 30.12 in /  1019.9 hPa SW 9.0 mph /  14.5 km/h 20.0 mph /  32.2 km/h 85 % 0.00 in /  0 mm 93 W/m2
12:20 50.1 °F /  10.1 °C 46.1 °F /  7.8 °C 30.12 in /  1019.9 hPa WNW 8.0 mph /  12.9 km/h 20.0 mph /  32.2 km/h 86 % 0.00 in /  0 mm 148 W/m2
12:30 50.0 °F /  10 °C 45.7 °F /  7.6 °C 30.11 in /  1019.5 hPa WSW 10.0 mph /  16.1 km/h 10.0 mph /  16.1 km/h 85 % 0.00 in /  0 mm 141 W/m2
12:35 50.0 °F /  10 °C 46.0 °F /  7.8 °C 30.12 in /  1019.9 hPa West 10.0 mph /  16.1 km/h 20.0 mph /  32.2 km/h 86 % 0.00 in /  0 mm 149 W/m2
12:40 50.0 °F /  10 °C 46.0 °F /  7.8 °C 30.12 in /  1019.9 hPa WSW 9.0 mph /  14.5 km/h 20.0 mph /  32.2 km/h 86 % 0.00 in /  0 mm 125 W/m2
12:45 50.0 °F /  10 °C 46.0 °F /  7.8 °C 30.12 in /  1019.9 hPa WNW 10.0 mph /  16.1 km/h 20.0 mph /  32.2 km/h 86 % 0.00 in /  0 mm 153 W/m2
12:50 50.0 °F /  10 °C 46.0 °F /  7.8 °C 30.11 in /  1019.5 hPa West 9.0 mph /  14.5 km/h 9.0 mph /  14.5 km/h 86 % 0.00 in /  0 mm 81 W/m2
12:55 50.0 °F /  10 °C 46.0 °F /  7.8 °C 30.11 in /  1019.5 hPa West 8.0 mph /  12.9 km/h 20.0 mph /  32.2 km/h 86 % 0.00 in /  0 mm 97 W/m2
13:00 50.0 °F /  10 °C 46.0 °F /  7.8 °C 30.11 in /  1019.5 hPa West 7.0 mph /  11.3 km/h 7.0 mph /  11.3 km/h 86 % 0.00 in /  0 mm 79 W/m2
13:10 49.9 °F /  9.9 °C 45.9 °F /  7.7 °C 30.11 in /  1019.5 hPa West 6.0 mph /  9.7 km/h 20.0 mph /  32.2 km/h 86 % 0.00 in /  0 mm 74 W/m2
13:15 49.9 °F /  9.9 °C 45.9 °F /  7.7 °C 30.11 in /  1019.5 hPa WSW 6.0 mph /  9.7 km/h 20.0 mph /  32.2 km/h 86 % 0.00 in /  0 mm 76 W/m2
13:20 49.8 °F /  9.9 °C 45.8 °F /  7.7 °C 30.10 in /  1019.2 hPa West 6.0 mph /  9.7 km/h 20.0 mph /  32.2 km/h 86 % 0.00 in /  0 mm 70 W/m2
13:25 49.9 °F /  9.9 °C 45.9 °F /  7.7 °C 30.10 in /  1019.2 hPa WSW 7.0 mph /  11.3 km/h 20.0 mph /  32.2 km/h 86 % 0.00 in /  0 mm 91 W/m2
13:30 50.0 °F /  10 °C 46.3 °F /  7.9 °C 30.10 in /  1019.2 hPa WSW 7.0 mph /  11.3 km/h 20.0 mph /  32.2 km/h 87 % 0.00 in /  0 mm 70 W/m2
13:35 49.9 °F /  9.9 °C 46.2 °F /  7.9 °C 30.10 in /  1019.2 hPa West 6.0 mph /  9.7 km/h 20.0 mph /  32.2 km/h 87 % 0.00 in /  0 mm 69 W/m2
13:40 49.8 °F /  9.9 °C 46.1 °F /  7.8 °C 30.10 in /  1019.2 hPa West 6.0 mph /  9.7 km/h 20.0 mph /  32.2 km/h 87 % 0.00 in /  0 mm 65 W/m2
13:50 49.8 °F /  9.9 °C 46.1 °F /  7.8 °C 30.10 in /  1019.2 hPa West 6.0 mph /  9.7 km/h 20.0 mph /  32.2 km/h 87 % 0.00 in /  0 mm 79 W/m2
13:55 49.8 °F /  9.9 °C 46.1 °F /  7.8 °C 30.10 in /  1019.2 hPa West 7.0 mph /  11.3 km/h 20.0 mph /  32.2 km/h 87 % 0.00 in /  0 mm 79 W/m2
14:05 50.0 °F /  10 °C 46.3 °F /  7.9 °C 30.10 in /  1019.2 hPa West 8.0 mph /  12.9 km/h 8.0 mph /  12.9 km/h 87 % 0.00 in /  0 mm 70 W/m2
14:10 50.0 °F /  10 °C 46.3 °F /  7.9 °C 30.10 in /  1019.2 hPa West 8.0 mph /  12.9 km/h 20.0 mph /  32.2 km/h 87 % 0.00 in /  0 mm 84 W/m2
14:15 50.0 °F /  10 °C 46.3 °F /  7.9 °C 30.10 in /  1019.2 hPa SW 8.0 mph /  12.9 km/h 20.0 mph /  32.2 km/h 87 % 0.00 in /  0 mm 72 W/m2
14:20 50.1 °F /  10.1 °C 46.4 °F /  8 °C 30.09 in /  1018.8 hPa WSW 8.0 mph /  12.9 km/h 20.0 mph /  32.2 km/h 87 % 0.00 in /  0 mm 69 W/m2
14:25 50.1 °F /  10.1 °C 46.4 °F /  8 °C 30.10 in /  1019.2 hPa WSW 7.0 mph /  11.3 km/h 20.0 mph /  32.2 km/h 87 % 0.00 in /  0 mm 58 W/m2
14:35 50.1 °F /  10.1 °C 46.4 °F /  8 °C 30.09 in /  1018.8 hPa WSW 7.0 mph /  11.3 km/h 20.0 mph /  32.2 km/h 87 % 0.00 in /  0 mm 37 W/m2
14:40 50.0 °F /  10 °C 46.3 °F /  7.9 °C 30.09 in /  1018.8 hPa WSW 8.0 mph /  12.9 km/h 20.0 mph /  32.2 km/h 87 % 0.00 in /  0 mm 35 W/m2
14:45 50.0 °F /  10 °C 46.3 °F /  7.9 °C 30.09 in /  1018.8 hPa WNW 7.0 mph /  11.3 km/h 20.0 mph /  32.2 km/h 87 % 0.00 in /  0 mm 42 W/m2
14:50 49.9 °F /  9.9 °C 46.2 °F /  7.9 °C 30.09 in /  1018.8 hPa West 8.0 mph /  12.9 km/h 20.0 mph /  32.2 km/h 87 % 0.00 in /  0 mm 51 W/m2
14:55 50.0 °F /  10 °C 46.6 °F /  8.1 °C 30.09 in /  1018.8 hPa WNW 8.0 mph /  12.9 km/h 20.0 mph /  32.2 km/h 88 % 0.00 in /  0 mm 60 W/m2
15:00 50.0 °F /  10 °C 46.6 °F /  8.1 °C 30.09 in /  1018.8 hPa West 7.0 mph /  11.3 km/h 7.0 mph /  11.3 km/h 88 % 0.00 in /  0 mm 70 W/m2
15:10 50.3 °F /  10.2 °C 46.9 °F /  8.3 °C 30.09 in /  1018.8 hPa West 6.0 mph /  9.7 km/h 20.0 mph /  32.2 km/h 88 % 0.00 in /  0 mm 60 W/m2
15:15 50.3 °F /  10.2 °C 46.9 °F /  8.3 °C 30.08 in /  1018.5 hPa West 7.0 mph /  11.3 km/h 20.0 mph /  32.2 km/h 88 % 0.00 in /  0 mm 63 W/m2
15:20 50.3 °F /  10.2 °C 46.9 °F /  8.3 °C 30.08 in /  1018.5 hPa WSW 7.0 mph /  11.3 km/h 7.0 mph /  11.3 km/h 88 % 0.00 in /  0 mm 51 W/m2
15:25 50.4 °F /  10.2 °C 47.0 °F /  8.3 °C 30.08 in /  1018.5 hPa SW 5.0 mph /  8 km/h 20.0 mph /  32.2 km/h 88 % 0.00 in /  0 mm 54 W/m2
15:35 50.4 °F /  10.2 °C 47.0 °F /  8.3 °C 30.09 in /  1018.8 hPa West 6.0 mph /  9.7 km/h 20.0 mph /  32.2 km/h 88 % 0.00 in /  0 mm 46 W/m2
15:40 50.4 °F /  10.2 °C 47.0 °F /  8.3 °C 30.09 in /  1018.8 hPa WSW 6.0 mph /  9.7 km/h 20.0 mph /  32.2 km/h 88 % 0.00 in /  0 mm 37 W/m2
15:45 50.4 °F /  10.2 °C 47.0 °F /  8.3 °C 30.09 in /  1018.8 hPa West 6.0 mph /  9.7 km/h 20.0 mph /  32.2 km/h 88 % 0.00 in /  0 mm 30 W/m2
15:50 50.4 °F /  10.2 °C 47.0 °F /  8.3 °C 30.08 in /  1018.5 hPa WSW 6.0 mph /  9.7 km/h 6.0 mph /  9.7 km/h 88 % 0.00 in /  0 mm 23 W/m2
15:55 50.3 °F /  10.2 °C 46.9 °F /  8.3 °C 30.08 in /  1018.5 hPa West 5.0 mph /  8 km/h 20.0 mph /  32.2 km/h 88 % 0.00 in /  0 mm 21 W/m2
16:00 50.3 °F /  10.2 °C 46.9 °F /  8.3 °C 30.09 in /  1018.8 hPa WSW 5.0 mph /  8 km/h 5.0 mph /  8 km/h 88 % 0.00 in /  0 mm 23 W/m2
16:05 50.3 °F /  10.2 °C 46.9 °F /  8.3 °C 30.08 in /  1018.5 hPa SSW 5.0 mph /  8 km/h 20.0 mph /  32.2 km/h 88 % 0.00 in /  0 mm 25 W/m2
16:15 50.3 °F /  10.2 °C 46.9 °F /  8.3 °C 30.08 in /  1018.5 hPa SW 4.0 mph /  6.4 km/h 20.0 mph /  32.2 km/h 88 % 0.00 in /  0 mm 18 W/m2
16:25 50.4 °F /  10.2 °C 47.0 °F /  8.3 °C 30.08 in /  1018.5 hPa WSW 4.0 mph /  6.4 km/h 4.0 mph /  6.4 km/h 88 % 0.00 in /  0 mm 11 W/m2
16:30 50.4 °F /  10.2 °C 47.0 °F /  8.3 °C 30.08 in /  1018.5 hPa SW 3.0 mph /  4.8 km/h 20.0 mph /  32.2 km/h 88 % 0.00 in /  0 mm 11 W/m2
16:35 50.5 °F /  10.3 °C 47.1 °F /  8.4 °C 30.08 in /  1018.5 hPa West 4.0 mph /  6.4 km/h 20.0 mph /  32.2 km/h 88 % 0.00 in /  0 mm 12 W/m2
16:40 50.5 °F /  10.3 °C 47.1 °F /  8.4 °C 30.08 in /  1018.5 hPa WSW 5.0 mph /  8 km/h 5.0 mph /  8 km/h 88 % 0.00 in /  0 mm 16 W/m2
16:45 50.6 °F /  10.3 °C 47.2 °F /  8.4 °C 30.08 in /  1018.5 hPa WSW 2.0 mph /  3.2 km/h 20.0 mph /  32.2 km/h 88 % 0.00 in /  0 mm 16 W/m2
16:55 50.6 °F /  10.3 °C 47.2 °F /  8.4 °C 30.07 in /  1018.2 hPa SW 3.0 mph /  4.8 km/h 3.0 mph /  4.8 km/h 88 % 0.00 in /  0 mm 9 W/m2
17:05 50.6 °F /  10.3 °C 47.2 °F /  8.4 °C 30.07 in /  1018.2 hPa SW 4.0 mph /  6.4 km/h 4.0 mph /  6.4 km/h 88 % 0.00 in /  0 mm 5 W/m2
17:10 50.5 °F /  10.3 °C 47.4 °F /  8.6 °C 30.06 in /  1017.8 hPa WSW 5.0 mph /  8 km/h 20.0 mph /  32.2 km/h 89 % 0.00 in /  0 mm 5 W/m2
17:15 50.5 °F /  10.3 °C 47.4 °F /  8.6 °C 30.06 in /  1017.8 hPa West 5.0 mph /  8 km/h 20.0 mph /  32.2 km/h 89 % 0.00 in /  0 mm 0 W/m2
17:20 50.5 °F /  10.3 °C 47.4 °F /  8.6 °C 30.06 in /  1017.8 hPa SW 6.0 mph /  9.7 km/h 20.0 mph /  32.2 km/h 89 % 0.00 in /  0 mm 0 W/m2
17:25 50.5 °F /  10.3 °C 47.4 °F /  8.6 °C 30.07 in /  1018.2 hPa West 6.0 mph /  9.7 km/h 20.0 mph /  32.2 km/h 89 % 0.00 in /  0 mm 0 W/m2
17:30 50.4 °F /  10.2 °C 47.3 °F /  8.5 °C 30.06 in /  1017.8 hPa West 7.0 mph /  11.3 km/h 7.0 mph /  11.3 km/h 89 % 0.00 in /  0 mm 0 W/m2
17:35 50.4 °F /  10.2 °C 47.3 °F /  8.5 °C 30.07 in /  1018.2 hPa West 6.0 mph /  9.7 km/h 20.0 mph /  32.2 km/h 89 % 0.00 in /  0 mm 0 W/m2
17:45 50.3 °F /  10.2 °C 47.2 °F /  8.4 °C 30.06 in /  1017.8 hPa West 7.0 mph /  11.3 km/h 20.0 mph /  32.2 km/h 89 % 0.00 in /  0 mm 0 W/m2
17:50 50.2 °F /  10.1 °C 47.4 °F /  8.6 °C 30.06 in /  1017.8 hPa West 5.0 mph /  8 km/h 5.0 mph /  8 km/h 90 % 0.00 in /  0 mm 0 W/m2
17:55 50.1 °F /  10.1 °C 47.0 °F /  8.3 °C 30.06 in /  1017.8 hPa WSW 6.0 mph /  9.7 km/h 8.0 mph /  12.9 km/h 89 % 0.00 in /  0 mm 0 W/m2
18:00 50.0 °F /  10 °C 47.2 °F /  8.4 °C 30.06 in /  1017.8 hPa WNW 7.0 mph /  11.3 km/h 7.0 mph /  11.3 km/h 90 % 0.00 in /  0 mm 0 W/m2
18:05 49.9 °F /  9.9 °C 47.1 °F /  8.4 °C 30.06 in /  1017.8 hPa West 6.0 mph /  9.7 km/h 10.0 mph /  16.1 km/h 90 % 0.00 in /  0 mm 0 W/m2
18:10 49.8 °F /  9.9 °C 47.0 °F /  8.3 °C 30.06 in /  1017.8 hPa SW 7.0 mph /  11.3 km/h 7.0 mph /  11.3 km/h 90 % 0.00 in /  0 mm 0 W/m2
18:15 49.8 °F /  9.9 °C 47.0 °F /  8.3 °C 30.06 in /  1017.8 hPa WNW 7.0 mph /  11.3 km/h 8.0 mph /  12.9 km/h 90 % 0.00 in /  0 mm 0 W/m2
18:20 49.8 °F /  9.9 °C 47.0 °F /  8.3 °C 30.06 in /  1017.8 hPa WSW 8.0 mph /  12.9 km/h 8.0 mph /  12.9 km/h 90 % 0.00 in /  0 mm 0 W/m2
18:30 49.8 °F /  9.9 °C 47.0 °F /  8.3 °C 30.06 in /  1017.8 hPa West 7.0 mph /  11.3 km/h 7.0 mph /  11.3 km/h 90 % 0.00 in /  0 mm 0 W/m2
18:35 49.8 °F /  9.9 °C 47.0 °F /  8.3 °C 30.07 in /  1018.2 hPa West 7.0 mph /  11.3 km/h 20.0 mph /  32.2 km/h 90 % 0.00 in /  0 mm 0 W/m2
18:40 49.9 °F /  9.9 °C 47.1 °F /  8.4 °C 30.07 in /  1018.2 hPa WNW 7.0 mph /  11.3 km/h 7.0 mph /  11.3 km/h 90 % 0.00 in /  0 mm 0 W/m2
18:45 49.9 °F /  9.9 °C 47.4 °F /  8.6 °C 30.07 in /  1018.2 hPa West 6.0 mph /  9.7 km/h 20.0 mph /  32.2 km/h 91 % 0.00 in /  0 mm 0 W/m2
18:50 49.9 °F /  9.9 °C 47.4 °F /  8.6 °C 30.07 in /  1018.2 hPa WSW 7.0 mph /  11.3 km/h 20.0 mph /  32.2 km/h 91 % 0.00 in /  0 mm 0 W/m2
18:55 50.0 °F /  10 °C 47.2 °F /  8.4 °C 30.07 in /  1018.2 hPa WSW 8.0 mph /  12.9 km/h 20.0 mph /  32.2 km/h 90 % 0.00 in /  0 mm 0 W/m2
19:00 50.0 °F /  10 °C 47.2 °F /  8.4 °C 30.06 in /  1017.8 hPa WSW 7.0 mph /  11.3 km/h 20.0 mph /  32.2 km/h 90 % 0.00 in /  0 mm 0 W/m2
19:05 50.1 °F /  10.1 °C 47.3 °F /  8.5 °C 30.06 in /  1017.8 hPa SW 7.0 mph /  11.3 km/h 20.0 mph /  32.2 km/h 90 % 0.00 in /  0 mm 0 W/m2
19:10 50.1 °F /  10.1 °C 47.3 °F /  8.5 °C 30.06 in /  1017.8 hPa SSW 5.0 mph /  8 km/h 5.0 mph /  8 km/h 90 % 0.00 in /  0 mm 0 W/m2
19:20 50.1 °F /  10.1 °C 47.3 °F /  8.5 °C 30.06 in /  1017.8 hPa WNW 2.0 mph /  3.2 km/h 2.0 mph /  3.2 km/h 90 % 0.00 in /  0 mm 0 W/m2
19:25 50.1 °F /  10.1 °C 47.3 °F /  8.5 °C 30.06 in /  1017.8 hPa WSW 3.0 mph /  4.8 km/h 3.0 mph /  4.8 km/h 90 % 0.00 in /  0 mm 0 W/m2
19:30 50.1 °F /  10.1 °C 47.3 °F /  8.5 °C 30.06 in /  1017.8 hPa West 3.0 mph /  4.8 km/h 20.0 mph /  32.2 km/h 90 % 0.00 in /  0 mm 0 W/m2
19:35 50.1 °F /  10.1 °C 47.3 °F /  8.5 °C 30.06 in /  1017.8 hPa SW 3.0 mph /  4.8 km/h 20.0 mph /  32.2 km/h 90 % 0.00 in /  0 mm 0 W/m2
19:40 50.1 °F /  10.1 °C 47.3 °F /  8.5 °C 30.06 in /  1017.8 hPa WSW 4.0 mph /  6.4 km/h 4.0 mph /  6.4 km/h 90 % 0.00 in /  0 mm 0 W/m2
19:45 50.1 °F /  10.1 °C 47.3 °F /  8.5 °C 30.05 in /  1017.5 hPa West 4.0 mph /  6.4 km/h 20.0 mph /  32.2 km/h 90 % 0.00 in /  0 mm 0 W/m2
19:50 50.1 °F /  10.1 °C 47.3 °F /  8.5 °C 30.05 in /  1017.5 hPa SW 3.0 mph /  4.8 km/h 20.0 mph /  32.2 km/h 90 % 0.00 in /  0 mm 0 W/m2
20:00 50.2 °F /  10.1 °C 47.4 °F /  8.6 °C 30.05 in /  1017.5 hPa SSW 2.0 mph /  3.2 km/h 2.0 mph /  3.2 km/h 90 % 0.00 in /  0 mm 0 W/m2
20:05 50.2 °F /  10.1 °C 47.4 °F /  8.6 °C 30.04 in /  1017.2 hPa South 2.0 mph /  3.2 km/h 20.0 mph /  32.2 km/h 90 % 0.00 in /  0 mm 0 W/m2
20:10 50.2 °F /  10.1 °C 47.4 °F /  8.6 °C 30.04 in /  1017.2 hPa West 4.0 mph /  6.4 km/h 20.0 mph /  32.2 km/h 90 % 0.00 in /  0 mm 0 W/m2
20:15 50.3 °F /  10.2 °C 47.5 °F /  8.6 °C 30.04 in /  1017.2 hPa WNW 6.0 mph /  9.7 km/h 20.0 mph /  32.2 km/h 90 % 0.00 in /  0 mm 0 W/m2
20:20 50.3 °F /  10.2 °C 47.5 °F /  8.6 °C 30.05 in /  1017.5 hPa West 7.0 mph /  11.3 km/h 20.0 mph /  32.2 km/h 90 % 0.00 in /  0 mm 0 W/m2
20:25 50.3 °F /  10.2 °C 47.8 °F /  8.8 °C 30.05 in /  1017.5 hPa West 9.0 mph /  14.5 km/h 20.0 mph /  32.2 km/h 91 % 0.00 in /  0 mm 0 W/m2
20:30 50.3 °F /  10.2 °C 47.8 °F /  8.8 °C 30.05 in /  1017.5 hPa West 8.0 mph /  12.9 km/h 8.0 mph /  12.9 km/h 91 % 0.00 in /  0 mm 0 W/m2
20:40 50.3 °F /  10.2 °C 47.8 °F /  8.8 °C 30.05 in /  1017.5 hPa SW 5.0 mph /  8 km/h 5.0 mph /  8 km/h 91 % 0.00 in /  0 mm 0 W/m2
20:45 50.3 °F /  10.2 °C 47.8 °F /  8.8 °C 30.05 in /  1017.5 hPa West 4.0 mph /  6.4 km/h 20.0 mph /  32.2 km/h 91 % 0.00 in /  0 mm 0 W/m2
20:50 50.3 °F /  10.2 °C 47.8 °F /  8.8 °C 30.04 in /  1017.2 hPa SW 2.0 mph /  3.2 km/h 20.0 mph /  32.2 km/h 91 % 0.00 in /  0 mm 0 W/m2
20:55 50.4 °F /  10.2 °C 47.9 °F /  8.8 °C 30.04 in /  1017.2 hPa WSW 4.0 mph /  6.4 km/h 20.0 mph /  32.2 km/h 91 % 0.00 in /  0 mm 0 W/m2
21:00 50.6 °F /  10.3 °C 48.1 °F /  8.9 °C 30.04 in /  1017.2 hPa West 8.0 mph /  12.9 km/h 20.0 mph /  32.2 km/h 91 % 0.00 in /  0 mm 0 W/m2
21:05 50.7 °F /  10.4 °C 48.2 °F /  9 °C 30.04 in /  1017.2 hPa WNW 8.0 mph /  12.9 km/h 20.0 mph /  32.2 km/h 91 % 0.00 in /  0 mm 0 W/m2
21:10 50.7 °F /  10.4 °C 48.2 °F /  9 °C 30.04 in /  1017.2 hPa West 7.0 mph /  11.3 km/h 7.0 mph /  11.3 km/h 91 % 0.00 in /  0 mm 0 W/m2
21:15 50.7 °F /  10.4 °C 48.2 °F /  9 °C 30.04 in /  1017.2 hPa WSW 7.0 mph /  11.3 km/h 20.0 mph /  32.2 km/h 91 % 0.00 in /  0 mm 0 W/m2
21:20 50.8 °F /  10.4 °C 48.0 °F /  8.9 °C 30.04 in /  1017.2 hPa SW 6.0 mph /  9.7 km/h 20.0 mph /  32.2 km/h 90 % 0.00 in /  0 mm 0 W/m2
21:25 50.8 °F /  10.4 °C 48.0 °F /  8.9 °C 30.04 in /  1017.2 hPa SW 4.0 mph /  6.4 km/h 20.0 mph /  32.2 km/h 90 % 0.00 in /  0 mm 0 W/m2
21:30 50.8 °F /  10.4 °C 48.0 °F /  8.9 °C 30.04 in /  1017.2 hPa SW 3.0 mph /  4.8 km/h 20.0 mph /  32.2 km/h 90 % 0.00 in /  0 mm 0 W/m2
21:40 50.9 °F /  10.5 °C 48.4 °F /  9.1 °C 30.04 in /  1017.2 hPa NW 2.0 mph /  3.2 km/h 20.0 mph /  32.2 km/h 91 % 0.00 in /  0 mm 0 W/m2
21:45 51.1 °F /  10.6 °C 48.6 °F /  9.2 °C 30.04 in /  1017.2 hPa West 4.0 mph /  6.4 km/h 20.0 mph /  32.2 km/h 91 % 0.00 in /  0 mm 0 W/m2
21:50 51.3 °F /  10.7 °C 48.8 °F /  9.3 °C 30.04 in /  1017.2 hPa WNW 7.0 mph /  11.3 km/h 7.0 mph /  11.3 km/h 91 % 0.00 in /  0 mm 0 W/m2
21:55 51.4 °F /  10.8 °C 48.9 °F /  9.4 °C 30.04 in /  1017.2 hPa West 6.0 mph /  9.7 km/h 13.0 mph /  20.9 km/h 91 % 0.00 in /  0 mm 0 W/m2
22:00 51.5 °F /  10.8 °C 49.0 °F /  9.4 °C 30.04 in /  1017.2 hPa WSW 6.0 mph /  9.7 km/h 20.0 mph /  32.2 km/h 91 % 0.00 in /  0 mm 0 W/m2
22:05 51.6 °F /  10.9 °C 49.1 °F /  9.5 °C 30.04 in /  1017.2 hPa West 8.0 mph /  12.9 km/h 20.0 mph /  32.2 km/h 91 % 0.00 in /  0 mm 0 W/m2
22:10 51.7 °F /  10.9 °C 49.2 °F /  9.6 °C 30.04 in /  1017.2 hPa West 8.0 mph /  12.9 km/h 8.0 mph /  12.9 km/h 91 % 0.00 in /  0 mm 0 W/m2
22:20 51.8 °F /  11 °C 49.3 °F /  9.6 °C 30.04 in /  1017.2 hPa WNW 8.0 mph /  12.9 km/h 8.0 mph /  12.9 km/h 91 % 0.00 in /  0 mm 0 W/m2
22:25 51.8 °F /  11 °C 49.3 °F /  9.6 °C 30.04 in /  1017.2 hPa WSW 7.0 mph /  11.3 km/h 20.0 mph /  32.2 km/h 91 % 0.00 in /  0 mm 0 W/m2
22:30 51.8 °F /  11 °C 49.3 °F /  9.6 °C 30.03 in /  1016.8 hPa WNW 6.0 mph /  9.7 km/h 20.0 mph /  32.2 km/h 91 % 0.00 in /  0 mm 0 W/m2
22:35 51.9 °F /  11.1 °C 49.4 °F /  9.7 °C 30.04 in /  1017.2 hPa West 8.0 mph /  12.9 km/h 20.0 mph /  32.2 km/h 91 % 0.00 in /  0 mm 0 W/m2
22:40 51.9 °F /  11.1 °C 49.1 °F /  9.5 °C 30.04 in /  1017.2 hPa West 8.0 mph /  12.9 km/h 20.0 mph /  32.2 km/h 90 % 0.00 in /  0 mm 0 W/m2
22:45 51.8 °F /  11 °C 49.0 °F /  9.4 °C 30.04 in /  1017.2 hPa West 6.0 mph /  9.7 km/h 20.0 mph /  32.2 km/h 90 % 0.00 in /  0 mm 0 W/m2
22:50 51.8 °F /  11 °C 49.0 °F /  9.4 °C 30.04 in /  1017.2 hPa West 5.0 mph /  8 km/h 20.0 mph /  32.2 km/h 90 % 0.00 in /  0 mm 0 W/m2
22:55 51.8 °F /  11 °C 49.0 °F /  9.4 °C 30.04 in /  1017.2 hPa WSW 5.0 mph /  8 km/h 20.0 mph /  32.2 km/h 90 % 0.00 in /  0 mm 0 W/m2
23:05 51.8 °F /  11 °C 49.0 °F /  9.4 °C 30.04 in /  1017.2 hPa WSW 6.0 mph /  9.7 km/h 20.0 mph /  32.2 km/h 90 % 0.00 in /  0 mm 0 W/m2
23:15 51.8 °F /  11 °C 49.3 °F /  9.6 °C 30.03 in /  1016.8 hPa SW 3.0 mph /  4.8 km/h 6.0 mph /  9.7 km/h 91 % 0.00 in /  0 mm 0 W/m2
23:20 51.9 °F /  11.1 °C 49.4 °F /  9.7 °C 30.03 in /  1016.8 hPa WSW 5.0 mph /  8 km/h 5.0 mph /  8 km/h 91 % 0.00 in /  0 mm 0 W/m2
23:25 51.9 °F /  11.1 °C 49.4 °F /  9.7 °C 30.02 in /  1016.5 hPa WSW 7.0 mph /  11.3 km/h 8.0 mph /  12.9 km/h 91 % 0.00 in /  0 mm 0 W/m2
23:30 51.8 °F /  11 °C 49.3 °F /  9.6 °C 30.02 in /  1016.5 hPa WSW 7.0 mph /  11.3 km/h 20.0 mph /  32.2 km/h 91 % 0.00 in /  0 mm 0 W/m2
23:35 51.9 °F /  11.1 °C 49.4 °F /  9.7 °C 30.02 in /  1016.5 hPa West 8.0 mph /  12.9 km/h 20.0 mph /  32.2 km/h 91 % 0.00 in /  0 mm 0 W/m2
23:45 52.0 °F /  11.1 °C 49.5 °F /  9.7 °C 30.02 in /  1016.5 hPa West 8.0 mph /  12.9 km/h 20.0 mph /  32.2 km/h 91 % 0.00 in /  0 mm 0 W/m2
23:50 52.0 °F /  11.1 °C 49.5 °F /  9.7 °C 30.02 in /  1016.5 hPa West 6.0 mph /  9.7 km/h 6.0 mph /  9.7 km/h 91 % 0.00 in /  0 mm 0 W/m2
23:55 52.0 °F /  11.1 °C 49.5 °F /  9.7 °C 30.02 in /  1016.5 hPa West 6.0 mph /  9.7 km/h 20.0 mph /  32.2 km/h 91 % 0.00 in /  0 mm 0 W/m2
Delerius-Weather
Compliments of Weather Underground - 2 mb

Data updates at regular intervals.